sensor_id;sensor_type;location;lat;lon;timestamp;P1;durP1;ratioP1;P2;durP2;ratioP2
7049;SDS011;22263;52.260;10.548;2024-01-27T00:01:56;0.70;;;0.70;;
7049;SDS011;22263;52.260;10.548;2024-01-27T00:04:29;0.60;;;0.60;;
7049;SDS011;22263;52.260;10.548;2024-01-27T00:06:59;0.60;;;0.60;;
7049;SDS011;22263;52.260;10.548;2024-01-27T00:09:29;0.60;;;0.60;;
7049;SDS011;22263;52.260;10.548;2024-01-27T00:11:59;0.57;;;0.57;;
7049;SDS011;22263;52.260;10.548;2024-01-27T00:14:29;0.70;;;0.70;;
7049;SDS011;22263;52.260;10.548;2024-01-27T00:17:00;0.50;;;0.50;;
7049;SDS011;22263;52.260;10.548;2024-01-27T00:19:33;0.70;;;0.70;;
7049;SDS011;22263;52.260;10.548;2024-01-27T00:22:06;0.60;;;0.60;;
7049;SDS011;22263;52.260;10.548;2024-01-27T00:24:40;0.60;;;0.60;;
7049;SDS011;22263;52.260;10.548;2024-01-27T00:27:10;0.70;;;0.70;;
7049;SDS011;22263;52.260;10.548;2024-01-27T00:29:40;0.68;;;0.68;;
7049;SDS011;22263;52.260;10.548;2024-01-27T00:32:10;0.60;;;0.60;;
7049;SDS011;22263;52.260;10.548;2024-01-27T00:34:43;0.70;;;0.70;;
7049;SDS011;22263;52.260;10.548;2024-01-27T00:37:13;0.60;;;0.60;;
7049;SDS011;22263;52.260;10.548;2024-01-27T00:39:44;0.68;;;0.68;;
7049;SDS011;22263;52.260;10.548;2024-01-27T00:42:14;0.70;;;0.70;;
7049;SDS011;22263;52.260;10.548;2024-01-27T00:44:51;0.70;;;0.70;;
7049;SDS011;22263;52.260;10.548;2024-01-27T00:47:21;0.60;;;0.60;;
7049;SDS011;22263;52.260;10.548;2024-01-27T00:49:53;0.60;;;0.60;;
7049;SDS011;22263;52.260;10.548;2024-01-27T00:52:23;0.60;;;0.60;;
7049;SDS011;22263;52.260;10.548;2024-01-27T00:54:53;0.70;;;0.70;;
7049;SDS011;22263;52.260;10.548;2024-01-27T00:57:23;0.75;;;0.75;;
7049;SDS011;22263;52.260;10.548;2024-01-27T00:59:53;0.65;;;0.65;;
7049;SDS011;22263;52.260;10.548;2024-01-27T01:02:20;0.70;;;0.70;;
7049;SDS011;22263;52.260;10.548;2024-01-27T01:04:53;0.70;;;0.70;;
7049;SDS011;22263;52.260;10.548;2024-01-27T01:07:22;0.68;;;0.68;;
7049;SDS011;22263;52.260;10.548;2024-01-27T01:09:53;0.50;;;0.50;;
7049;SDS011;22263;52.260;10.548;2024-01-27T01:12:23;0.60;;;0.60;;
7049;SDS011;22263;52.260;10.548;2024-01-27T01:14:53;0.60;;;0.60;;
7049;SDS011;22263;52.260;10.548;2024-01-27T01:17:24;0.60;;;0.60;;
7049;SDS011;22263;52.260;10.548;2024-01-27T01:19:57;0.60;;;0.60;;
7049;SDS011;22263;52.260;10.548;2024-01-27T01:22:27;0.60;;;0.60;;
7049;SDS011;22263;52.260;10.548;2024-01-27T01:24:57;0.70;;;0.70;;
7049;SDS011;22263;52.260;10.548;2024-01-27T01:27:27;0.70;;;0.70;;
7049;SDS011;22263;52.260;10.548;2024-01-27T01:29:57;0.70;;;0.70;;
7049;SDS011;22263;52.260;10.548;2024-01-27T01:32:27;0.60;;;0.60;;
7049;SDS011;22263;52.260;10.548;2024-01-27T01:35:00;0.70;;;0.70;;
7049;SDS011;22263;52.260;10.548;2024-01-27T01:37:30;0.60;;;0.60;;
7049;SDS011;22263;52.260;10.548;2024-01-27T01:40:00;0.70;;;0.70;;
7049;SDS011;22263;52.260;10.548;2024-01-27T01:42:27;0.50;;;0.50;;
7049;SDS011;22263;52.260;10.548;2024-01-27T01:44:58;0.60;;;0.60;;
7049;SDS011;22263;52.260;10.548;2024-01-27T01:47:28;0.60;;;0.60;;
7049;SDS011;22263;52.260;10.548;2024-01-27T01:50:01;0.80;;;0.80;;
7049;SDS011;22263;52.260;10.548;2024-01-27T01:52:31;0.57;;;0.57;;
7049;SDS011;22263;52.260;10.548;2024-01-27T01:55:01;0.60;;;0.60;;
7049;SDS011;22263;52.260;10.548;2024-01-27T01:57:32;0.70;;;0.70;;
7049;SDS011;22263;52.260;10.548;2024-01-27T02:00:03;0.70;;;0.70;;
7049;SDS011;22263;52.260;10.548;2024-01-27T02:02:42;0.70;;;0.70;;
7049;SDS011;22263;52.260;10.548;2024-01-27T02:05:15;0.70;;;0.70;;
7049;SDS011;22263;52.260;10.548;2024-01-27T02:07:45;0.80;;;0.80;;
7049;SDS011;22263;52.260;10.548;2024-01-27T02:10:17;0.60;;;0.60;;
7049;SDS011;22263;52.260;10.548;2024-01-27T02:12:47;0.55;;;0.55;;
7049;SDS011;22263;52.260;10.548;2024-01-27T02:15:17;0.60;;;0.60;;
7049;SDS011;22263;52.260;10.548;2024-01-27T02:17:48;0.70;;;0.70;;
7049;SDS011;22263;52.260;10.548;2024-01-27T02:20:21;0.60;;;0.60;;
7049;SDS011;22263;52.260;10.548;2024-01-27T02:22:51;0.70;;;0.70;;
7049;SDS011;22263;52.260;10.548;2024-01-27T02:25:24;0.60;;;0.60;;
7049;SDS011;22263;52.260;10.548;2024-01-27T02:27:54;0.80;;;0.80;;
7049;SDS011;22263;52.260;10.548;2024-01-27T02:30:24;0.60;;;0.60;;
7049;SDS011;22263;52.260;10.548;2024-01-27T02:32:55;0.70;;;0.70;;
7049;SDS011;22263;52.260;10.548;2024-01-27T02:35:25;0.60;;;0.60;;
7049;SDS011;22263;52.260;10.548;2024-01-27T02:37:56;0.70;;;0.70;;
7049;SDS011;22263;52.260;10.548;2024-01-27T02:40:28;0.80;;;0.80;;
7049;SDS011;22263;52.260;10.548;2024-01-27T02:42:58;0.60;;;0.60;;
7049;SDS011;22263;52.260;10.548;2024-01-27T02:45:28;0.68;;;0.68;;
7049;SDS011;22263;52.260;10.548;2024-01-27T02:47:58;0.60;;;0.60;;
7049;SDS011;22263;52.260;10.548;2024-01-27T02:50:28;0.60;;;0.60;;
7049;SDS011;22263;52.260;10.548;2024-01-27T02:52:58;0.60;;;0.60;;
7049;SDS011;22263;52.260;10.548;2024-01-27T02:55:30;0.70;;;0.70;;
7049;SDS011;22263;52.260;10.548;2024-01-27T02:58:00;0.52;;;0.52;;
7049;SDS011;22263;52.260;10.548;2024-01-27T03:00:30;0.65;;;0.65;;
7049;SDS011;22263;52.260;10.548;2024-01-27T03:03:01;0.65;;;0.65;;
7049;SDS011;22263;52.260;10.548;2024-01-27T03:05:34;0.60;;;0.60;;
7049;SDS011;22263;52.260;10.548;2024-01-27T03:08:04;0.60;;;0.60;;
7049;SDS011;22263;52.260;10.548;2024-01-27T03:10:37;0.70;;;0.70;;
7049;SDS011;22263;52.260;10.548;2024-01-27T03:13:07;0.70;;;0.70;;
7049;SDS011;22263;52.260;10.548;2024-01-27T03:15:37;0.70;;;0.70;;
7049;SDS011;22263;52.260;10.548;2024-01-27T03:18:09;0.70;;;0.70;;
7049;SDS011;22263;52.260;10.548;2024-01-27T03:20:39;0.60;;;0.60;;
7049;SDS011;22263;52.260;10.548;2024-01-27T03:23:09;0.68;;;0.68;;
7049;SDS011;22263;52.260;10.548;2024-01-27T03:25:42;0.60;;;0.60;;
7049;SDS011;22263;52.260;10.548;2024-01-27T03:28:12;0.60;;;0.60;;
7049;SDS011;22263;52.260;10.548;2024-01-27T03:30:42;0.60;;;0.60;;
7049;SDS011;22263;52.260;10.548;2024-01-27T03:33:13;0.68;;;0.68;;
7049;SDS011;22263;52.260;10.548;2024-01-27T03:35:43;0.73;;;0.73;;
7049;SDS011;22263;52.260;10.548;2024-01-27T03:38:13;0.60;;;0.60;;
7049;SDS011;22263;52.260;10.548;2024-01-27T03:40:46;0.60;;;0.60;;
7049;SDS011;22263;52.260;10.548;2024-01-27T03:43:16;0.80;;;0.80;;
7049;SDS011;22263;52.260;10.548;2024-01-27T03:45:46;0.52;;;0.52;;
7049;SDS011;22263;52.260;10.548;2024-01-27T03:48:16;0.50;;;0.50;;
7049;SDS011;22263;52.260;10.548;2024-01-27T03:50:46;0.60;;;0.60;;
7049;SDS011;22263;52.260;10.548;2024-01-27T03:53:16;0.70;;;0.70;;
7049;SDS011;22263;52.260;10.548;2024-01-27T03:55:49;0.60;;;0.60;;
7049;SDS011;22263;52.260;10.548;2024-01-27T03:58:19;0.70;;;0.70;;
7049;SDS011;22263;52.260;10.548;2024-01-27T04:00:49;0.60;;;0.60;;
7049;SDS011;22263;52.260;10.548;2024-01-27T04:03:19;0.80;;;0.80;;
7049;SDS011;22263;52.260;10.548;2024-01-27T04:05:49;0.60;;;0.60;;
7049;SDS011;22263;52.260;10.548;2024-01-27T04:08:19;0.70;;;0.70;;
7049;SDS011;22263;52.260;10.548;2024-01-27T04:10:52;0.57;;;0.57;;
7049;SDS011;22263;52.260;10.548;2024-01-27T04:13:22;0.50;;;0.50;;
7049;SDS011;22263;52.260;10.548;2024-01-27T04:15:52;0.60;;;0.60;;
7049;SDS011;22263;52.260;10.548;2024-01-27T04:18:24;0.60;;;0.60;;
7049;SDS011;22263;52.260;10.548;2024-01-27T04:20:53;0.60;;;0.60;;
7049;SDS011;22263;52.260;10.548;2024-01-27T04:23:23;0.60;;;0.60;;
7049;SDS011;22263;52.260;10.548;2024-01-27T04:25:56;0.60;;;0.60;;
7049;SDS011;22263;52.260;10.548;2024-01-27T04:28:26;0.52;;;0.52;;
7049;SDS011;22263;52.260;10.548;2024-01-27T04:30:57;0.57;;;0.57;;
7049;SDS011;22263;52.260;10.548;2024-01-27T04:33:26;0.68;;;0.68;;
7049;SDS011;22263;52.260;10.548;2024-01-27T04:35:56;0.63;;;0.63;;
7049;SDS011;22263;52.260;10.548;2024-01-27T04:38:27;0.60;;;0.60;;
7049;SDS011;22263;52.260;10.548;2024-01-27T04:40:59;0.80;;;0.80;;
7049;SDS011;22263;52.260;10.548;2024-01-27T04:43:30;0.70;;;0.70;;
7049;SDS011;22263;52.260;10.548;2024-01-27T04:46:00;0.65;;;0.65;;
7049;SDS011;22263;52.260;10.548;2024-01-27T04:48:30;0.52;;;0.52;;
7049;SDS011;22263;52.260;10.548;2024-01-27T04:51:00;0.60;;;0.60;;
7049;SDS011;22263;52.260;10.548;2024-01-27T04:53:30;0.50;;;0.50;;
7049;SDS011;22263;52.260;10.548;2024-01-27T04:56:03;0.40;;;0.40;;
7049;SDS011;22263;52.260;10.548;2024-01-27T04:58:36;0.60;;;0.60;;
7049;SDS011;22263;52.260;10.548;2024-01-27T05:01:06;0.70;;;0.70;;
7049;SDS011;22263;52.260;10.548;2024-01-27T05:03:36;0.60;;;0.60;;
7049;SDS011;22263;52.260;10.548;2024-01-27T05:06:07;0.65;;;0.65;;
7049;SDS011;22263;52.260;10.548;2024-01-27T05:08:38;0.70;;;0.70;;
7049;SDS011;22263;52.260;10.548;2024-01-27T05:11:11;0.70;;;0.70;;
7049;SDS011;22263;52.260;10.548;2024-01-27T05:13:41;0.60;;;0.60;;
7049;SDS011;22263;52.260;10.548;2024-01-27T05:16:11;0.65;;;0.65;;
7049;SDS011;22263;52.260;10.548;2024-01-27T05:18:41;0.50;;;0.50;;
7049;SDS011;22263;52.260;10.548;2024-01-27T05:21:11;0.60;;;0.60;;
7049;SDS011;22263;52.260;10.548;2024-01-27T05:23:41;0.60;;;0.60;;
7049;SDS011;22263;52.260;10.548;2024-01-27T05:26:14;0.70;;;0.70;;
7049;SDS011;22263;52.260;10.548;2024-01-27T05:28:44;0.70;;;0.70;;
7049;SDS011;22263;52.260;10.548;2024-01-27T05:31:14;0.52;;;0.52;;
7049;SDS011;22263;52.260;10.548;2024-01-27T05:33:45;0.70;;;0.70;;
7049;SDS011;22263;52.260;10.548;2024-01-27T05:36:15;0.75;;;0.75;;
7049;SDS011;22263;52.260;10.548;2024-01-27T05:38:45;0.50;;;0.50;;
7049;SDS011;22263;52.260;10.548;2024-01-27T05:41:18;0.70;;;0.70;;
7049;SDS011;22263;52.260;10.548;2024-01-27T05:43:48;0.52;;;0.52;;
7049;SDS011;22263;52.260;10.548;2024-01-27T05:46:18;0.50;;;0.50;;
7049;SDS011;22263;52.260;10.548;2024-01-27T05:48:48;0.65;;;0.65;;
7049;SDS011;22263;52.260;10.548;2024-01-27T05:51:21;0.57;;;0.57;;
7049;SDS011;22263;52.260;10.548;2024-01-27T05:53:51;0.60;;;0.60;;
7049;SDS011;22263;52.260;10.548;2024-01-27T05:56:24;0.70;;;0.70;;
7049;SDS011;22263;52.260;10.548;2024-01-27T05:58:54;0.70;;;0.70;;
7049;SDS011;22263;52.260;10.548;2024-01-27T06:01:24;0.70;;;0.70;;
7049;SDS011;22263;52.260;10.548;2024-01-27T06:03:54;0.68;;;0.68;;
7049;SDS011;22263;52.260;10.548;2024-01-27T06:06:24;0.60;;;0.60;;
7049;SDS011;22263;52.260;10.548;2024-01-27T06:08:54;0.68;;;0.68;;
7049;SDS011;22263;52.260;10.548;2024-01-27T06:11:27;0.50;;;0.50;;
7049;SDS011;22263;52.260;10.548;2024-01-27T06:13:57;0.60;;;0.60;;
7049;SDS011;22263;52.260;10.548;2024-01-27T06:16:27;0.50;;;0.50;;
7049;SDS011;22263;52.260;10.548;2024-01-27T06:18:57;0.60;;;0.60;;
7049;SDS011;22263;52.260;10.548;2024-01-27T06:21:27;0.50;;;0.50;;
7049;SDS011;22263;52.260;10.548;2024-01-27T06:23:57;0.70;;;0.70;;
7049;SDS011;22263;52.260;10.548;2024-01-27T06:26:30;0.70;;;0.70;;
7049;SDS011;22263;52.260;10.548;2024-01-27T06:29:00;0.43;;;0.43;;
7049;SDS011;22263;52.260;10.548;2024-01-27T06:31:30;0.60;;;0.60;;
7049;SDS011;22263;52.260;10.548;2024-01-27T06:34:00;0.60;;;0.60;;
7049;SDS011;22263;52.260;10.548;2024-01-27T06:36:30;0.65;;;0.65;;
7049;SDS011;22263;52.260;10.548;2024-01-27T06:39:01;0.60;;;0.60;;
7049;SDS011;22263;52.260;10.548;2024-01-27T06:41:33;0.60;;;0.60;;
7049;SDS011;22263;52.260;10.548;2024-01-27T06:44:03;0.60;;;0.60;;
7049;SDS011;22263;52.260;10.548;2024-01-27T06:46:34;0.63;;;0.63;;
7049;SDS011;22263;52.260;10.548;2024-01-27T06:49:04;0.65;;;0.65;;
7049;SDS011;22263;52.260;10.548;2024-01-27T06:51:34;0.70;;;0.70;;
7049;SDS011;22263;52.260;10.548;2024-01-27T06:54:04;0.50;;;0.50;;
7049;SDS011;22263;52.260;10.548;2024-01-27T06:56:37;0.70;;;0.70;;
7049;SDS011;22263;52.260;10.548;2024-01-27T06:59:07;0.50;;;0.50;;
7049;SDS011;22263;52.260;10.548;2024-01-27T07:01:37;0.47;;;0.47;;
7049;SDS011;22263;52.260;10.548;2024-01-27T07:04:07;0.70;;;0.70;;
7049;SDS011;22263;52.260;10.548;2024-01-27T07:06:37;0.75;;;0.75;;
7049;SDS011;22263;52.260;10.548;2024-01-27T07:09:07;0.80;;;0.80;;
7049;SDS011;22263;52.260;10.548;2024-01-27T07:11:40;0.63;;;0.63;;
7049;SDS011;22263;52.260;10.548;2024-01-27T07:14:10;0.63;;;0.63;;
7049;SDS011;22263;52.260;10.548;2024-01-27T07:16:40;0.57;;;0.57;;
7049;SDS011;22263;52.260;10.548;2024-01-27T07:19:10;0.75;;;0.75;;
7049;SDS011;22263;52.260;10.548;2024-01-27T07:21:43;0.50;;;0.50;;
7049;SDS011;22263;52.260;10.548;2024-01-27T07:24:13;0.60;;;0.60;;
7049;SDS011;22263;52.260;10.548;2024-01-27T07:26:45;0.60;;;0.60;;
7049;SDS011;22263;52.260;10.548;2024-01-27T07:29:18;0.70;;;0.70;;
7049;SDS011;22263;52.260;10.548;2024-01-27T07:31:49;0.63;;;0.63;;
7049;SDS011;22263;52.260;10.548;2024-01-27T07:34:19;0.80;;;0.80;;
7049;SDS011;22263;52.260;10.548;2024-01-27T07:36:50;0.70;;;0.70;;
7049;SDS011;22263;52.260;10.548;2024-01-27T07:39:20;0.70;;;0.70;;
7049;SDS011;22263;52.260;10.548;2024-01-27T07:41:52;0.80;;;0.80;;
7049;SDS011;22263;52.260;10.548;2024-01-27T07:44:22;0.70;;;0.70;;
7049;SDS011;22263;52.260;10.548;2024-01-27T07:46:52;0.60;;;0.60;;
7049;SDS011;22263;52.260;10.548;2024-01-27T07:49:22;0.60;;;0.60;;
7049;SDS011;22263;52.260;10.548;2024-01-27T07:51:52;0.70;;;0.70;;
7049;SDS011;22263;52.260;10.548;2024-01-27T07:54:22;0.70;;;0.70;;
7049;SDS011;22263;52.260;10.548;2024-01-27T07:56:55;0.70;;;0.70;;
7049;SDS011;22263;52.260;10.548;2024-01-27T07:59:25;0.75;;;0.75;;
7049;SDS011;22263;52.260;10.548;2024-01-27T08:01:55;0.60;;;0.60;;
7049;SDS011;22263;52.260;10.548;2024-01-27T08:04:25;0.60;;;0.60;;
7049;SDS011;22263;52.260;10.548;2024-01-27T08:06:55;0.63;;;0.63;;
7049;SDS011;22263;52.260;10.548;2024-01-27T08:09:25;0.60;;;0.60;;
7049;SDS011;22263;52.260;10.548;2024-01-27T08:11:58;0.80;;;0.80;;
7049;SDS011;22263;52.260;10.548;2024-01-27T08:14:29;0.60;;;0.60;;
7049;SDS011;22263;52.260;10.548;2024-01-27T08:17:00;0.70;;;0.70;;
7049;SDS011;22263;52.260;10.548;2024-01-27T08:19:30;0.60;;;0.60;;
7049;SDS011;22263;52.260;10.548;2024-01-27T08:22:01;0.70;;;0.70;;
7049;SDS011;22263;52.260;10.548;2024-01-27T08:24:31;0.65;;;0.65;;
7049;SDS011;22263;52.260;10.548;2024-01-27T08:27:04;0.50;;;0.50;;
7049;SDS011;22263;52.260;10.548;2024-01-27T08:29:34;0.55;;;0.55;;
7049;SDS011;22263;52.260;10.548;2024-01-27T08:32:05;0.60;;;0.60;;
7049;SDS011;22263;52.260;10.548;2024-01-27T08:34:36;0.60;;;0.60;;
7049;SDS011;22263;52.260;10.548;2024-01-27T08:37:13;0.70;;;0.70;;
7049;SDS011;22263;52.260;10.548;2024-01-27T08:39:45;0.65;;;0.65;;
7049;SDS011;22263;52.260;10.548;2024-01-27T08:42:15;0.60;;;0.60;;
7049;SDS011;22263;52.260;10.548;2024-01-27T08:44:45;0.60;;;0.60;;
7049;SDS011;22263;52.260;10.548;2024-01-27T08:47:15;0.70;;;0.70;;
7049;SDS011;22263;52.260;10.548;2024-01-27T08:49:45;0.60;;;0.60;;
7049;SDS011;22263;52.260;10.548;2024-01-27T08:52:16;0.60;;;0.60;;
7049;SDS011;22263;52.260;10.548;2024-01-27T08:54:46;0.68;;;0.68;;
7049;SDS011;22263;52.260;10.548;2024-01-27T08:57:18;0.60;;;0.60;;
7049;SDS011;22263;52.260;10.548;2024-01-27T08:59:48;0.70;;;0.70;;
7049;SDS011;22263;52.260;10.548;2024-01-27T09:02:18;0.60;;;0.60;;
7049;SDS011;22263;52.260;10.548;2024-01-27T09:04:48;0.50;;;0.50;;
7049;SDS011;22263;52.260;10.548;2024-01-27T09:07:18;0.80;;;0.80;;
7049;SDS011;22263;52.260;10.548;2024-01-27T09:09:48;0.60;;;0.60;;
7049;SDS011;22263;52.260;10.548;2024-01-27T09:12:21;0.57;;;0.57;;
7049;SDS011;22263;52.260;10.548;2024-01-27T09:14:51;0.57;;;0.57;;
7049;SDS011;22263;52.260;10.548;2024-01-27T09:17:21;0.50;;;0.50;;
7049;SDS011;22263;52.260;10.548;2024-01-27T09:19:51;0.68;;;0.68;;
7049;SDS011;22263;52.260;10.548;2024-01-27T09:22:22;0.70;;;0.70;;
7049;SDS011;22263;52.260;10.548;2024-01-27T09:24:51;0.47;;;0.47;;
7049;SDS011;22263;52.260;10.548;2024-01-27T09:27:24;0.68;;;0.68;;
7049;SDS011;22263;52.260;10.548;2024-01-27T09:29:54;0.60;;;0.60;;
7049;SDS011;22263;52.260;10.548;2024-01-27T09:32:24;0.60;;;0.60;;
7049;SDS011;22263;52.260;10.548;2024-01-27T09:34:54;0.60;;;0.60;;
7049;SDS011;22263;52.260;10.548;2024-01-27T09:37:25;0.60;;;0.60;;
7049;SDS011;22263;52.260;10.548;2024-01-27T09:39:55;0.50;;;0.50;;
7049;SDS011;22263;52.260;10.548;2024-01-27T09:42:30;0.50;;;0.50;;
7049;SDS011;22263;52.260;10.548;2024-01-27T09:45:05;0.50;;;0.50;;
7049;SDS011;22263;52.260;10.548;2024-01-27T09:47:38;0.40;;;0.40;;
7049;SDS011;22263;52.260;10.548;2024-01-27T09:50:10;0.50;;;0.50;;
7049;SDS011;22263;52.260;10.548;2024-01-27T09:52:41;0.43;;;0.43;;
7049;SDS011;22263;52.260;10.548;2024-01-27T09:55:11;0.32;;;0.32;;
7049;SDS011;22263;52.260;10.548;2024-01-27T09:57:44;0.45;;;0.45;;
7049;SDS011;22263;52.260;10.548;2024-01-27T10:00:14;0.40;;;0.40;;
7049;SDS011;22263;52.260;10.548;2024-01-27T10:02:46;0.50;;;0.50;;
7049;SDS011;22263;52.260;10.548;2024-01-27T10:05:17;0.50;;;0.50;;
7049;SDS011;22263;52.260;10.548;2024-01-27T10:07:48;0.40;;;0.40;;
7049;SDS011;22263;52.260;10.548;2024-01-27T10:10:23;0.40;;;0.40;;
7049;SDS011;22263;52.260;10.548;2024-01-27T10:12:56;0.50;;;0.50;;
7049;SDS011;22263;52.260;10.548;2024-01-27T10:15:30;0.50;;;0.50;;
7049;SDS011;22263;52.260;10.548;2024-01-27T10:18:07;0.40;;;0.40;;
7049;SDS011;22263;52.260;10.548;2024-01-27T10:20:40;0.50;;;0.50;;
7049;SDS011;22263;52.260;10.548;2024-01-27T10:23:11;0.40;;;0.40;;
7049;SDS011;22263;52.260;10.548;2024-01-27T10:25:42;0.40;;;0.40;;
7049;SDS011;22263;52.260;10.548;2024-01-27T10:28:15;0.40;;;0.40;;
7049;SDS011;22263;52.260;10.548;2024-01-27T10:30:45;0.50;;;0.50;;
7049;SDS011;22263;52.260;10.548;2024-01-27T10:33:16;0.50;;;0.50;;
7049;SDS011;22263;52.260;10.548;2024-01-27T10:35:46;0.40;;;0.40;;
7049;SDS011;22263;52.260;10.548;2024-01-27T10:38:36;0.40;;;0.40;;
7049;SDS011;22263;52.260;10.548;2024-01-27T10:41:07;0.40;;;0.40;;
7049;SDS011;22263;52.260;10.548;2024-01-27T10:43:41;0.40;;;0.40;;
7049;SDS011;22263;52.260;10.548;2024-01-27T10:46:12;0.50;;;0.50;;
7049;SDS011;22263;52.260;10.548;2024-01-27T10:48:43;0.40;;;0.40;;
7049;SDS011;22263;52.260;10.548;2024-01-27T10:51:22;0.38;;;0.38;;
7049;SDS011;22263;52.260;10.548;2024-01-27T10:53:56;0.40;;;0.40;;
7049;SDS011;22263;52.260;10.548;2024-01-27T10:56:30;0.50;;;0.50;;
7049;SDS011;22263;52.260;10.548;2024-01-27T10:59:04;0.40;;;0.40;;
7049;SDS011;22263;52.260;10.548;2024-01-27T11:01:35;0.50;;;0.50;;
7049;SDS011;22263;52.260;10.548;2024-01-27T11:04:08;0.50;;;0.50;;
7049;SDS011;22263;52.260;10.548;2024-01-27T11:06:40;0.40;;;0.40;;
7049;SDS011;22263;52.260;10.548;2024-01-27T11:09:12;0.40;;;0.40;;
7049;SDS011;22263;52.260;10.548;2024-01-27T11:11:44;0.47;;;0.47;;
7049;SDS011;22263;52.260;10.548;2024-01-27T11:14:18;0.40;;;0.40;;
7049;SDS011;22263;52.260;10.548;2024-01-27T11:16:53;0.40;;;0.40;;
7049;SDS011;22263;52.260;10.548;2024-01-27T11:19:24;0.40;;;0.40;;
7049;SDS011;22263;52.260;10.548;2024-01-27T11:22:00;0.40;;;0.40;;
7049;SDS011;22263;52.260;10.548;2024-01-27T11:24:31;0.40;;;0.40;;
7049;SDS011;22263;52.260;10.548;2024-01-27T11:27:02;0.30;;;0.30;;
7049;SDS011;22263;52.260;10.548;2024-01-27T11:29:46;0.40;;;0.40;;
7049;SDS011;22263;52.260;10.548;2024-01-27T11:32:16;0.47;;;0.47;;
7049;SDS011;22263;52.260;10.548;2024-01-27T11:34:46;0.40;;;0.40;;
7049;SDS011;22263;52.260;10.548;2024-01-27T11:37:17;0.40;;;0.40;;
7049;SDS011;22263;52.260;10.548;2024-01-27T11:39:51;0.40;;;0.40;;
7049;SDS011;22263;52.260;10.548;2024-01-27T11:42:33;0.50;;;0.50;;
7049;SDS011;22263;52.260;10.548;2024-01-27T11:45:06;0.40;;;0.40;;
7049;SDS011;22263;52.260;10.548;2024-01-27T11:47:38;0.50;;;0.50;;
7049;SDS011;22263;52.260;10.548;2024-01-27T11:50:08;0.40;;;0.40;;
7049;SDS011;22263;52.260;10.548;2024-01-27T11:52:39;0.43;;;0.43;;
7049;SDS011;22263;52.260;10.548;2024-01-27T11:55:09;0.50;;;0.50;;
7049;SDS011;22263;52.260;10.548;2024-01-27T11:57:42;0.50;;;0.50;;
7049;SDS011;22263;52.260;10.548;2024-01-27T12:00:14;0.40;;;0.40;;
7049;SDS011;22263;52.260;10.548;2024-01-27T12:02:49;0.43;;;0.43;;
7049;SDS011;22263;52.260;10.548;2024-01-27T12:05:20;0.45;;;0.45;;
7049;SDS011;22263;52.260;10.548;2024-01-27T12:07:51;0.40;;;0.40;;
7049;SDS011;22263;52.260;10.548;2024-01-27T12:10:21;0.40;;;0.40;;
7049;SDS011;22263;52.260;10.548;2024-01-27T12:12:51;0.40;;;0.40;;
7049;SDS011;22263;52.260;10.548;2024-01-27T12:15:24;0.50;;;0.50;;
7049;SDS011;22263;52.260;10.548;2024-01-27T12:17:55;0.40;;;0.40;;
7049;SDS011;22263;52.260;10.548;2024-01-27T12:20:25;0.40;;;0.40;;
7049;SDS011;22263;52.260;10.548;2024-01-27T12:23:01;0.40;;;0.40;;
7049;SDS011;22263;52.260;10.548;2024-01-27T12:25:32;0.40;;;0.40;;
7049;SDS011;22263;52.260;10.548;2024-01-27T12:28:02;0.45;;;0.45;;
7049;SDS011;22263;52.260;10.548;2024-01-27T12:30:37;0.30;;;0.30;;
7049;SDS011;22263;52.260;10.548;2024-01-27T12:33:09;0.40;;;0.40;;
7049;SDS011;22263;52.260;10.548;2024-01-27T12:35:42;0.50;;;0.50;;
7049;SDS011;22263;52.260;10.548;2024-01-27T12:38:12;0.40;;;0.40;;
7049;SDS011;22263;52.260;10.548;2024-01-27T12:40:42;0.40;;;0.40;;
7049;SDS011;22263;52.260;10.548;2024-01-27T12:43:12;0.40;;;0.40;;
7049;SDS011;22263;52.260;10.548;2024-01-27T12:45:44;0.40;;;0.40;;
7049;SDS011;22263;52.260;10.548;2024-01-27T12:48:15;0.40;;;0.40;;
7049;SDS011;22263;52.260;10.548;2024-01-27T12:50:45;0.40;;;0.40;;
7049;SDS011;22263;52.260;10.548;2024-01-27T12:53:15;0.40;;;0.40;;
7049;SDS011;22263;52.260;10.548;2024-01-27T12:55:45;0.40;;;0.40;;
7049;SDS011;22263;52.260;10.548;2024-01-27T12:58:15;0.50;;;0.50;;
7049;SDS011;22263;52.260;10.548;2024-01-27T13:00:47;0.40;;;0.40;;
7049;SDS011;22263;52.260;10.548;2024-01-27T13:03:18;0.40;;;0.40;;
7049;SDS011;22263;52.260;10.548;2024-01-27T13:05:47;0.47;;;0.47;;
7049;SDS011;22263;52.260;10.548;2024-01-27T13:08:18;0.40;;;0.40;;
7049;SDS011;22263;52.260;10.548;2024-01-27T13:10:51;0.40;;;0.40;;
7049;SDS011;22263;52.260;10.548;2024-01-27T13:13:21;0.50;;;0.50;;
7049;SDS011;22263;52.260;10.548;2024-01-27T13:15:54;0.40;;;0.40;;
7049;SDS011;22263;52.260;10.548;2024-01-27T13:18:24;0.40;;;0.40;;
7049;SDS011;22263;52.260;10.548;2024-01-27T13:20:54;0.40;;;0.40;;
7049;SDS011;22263;52.260;10.548;2024-01-27T13:23:24;0.40;;;0.40;;
7049;SDS011;22263;52.260;10.548;2024-01-27T13:25:57;0.45;;;0.45;;
7049;SDS011;22263;52.260;10.548;2024-01-27T13:28:43;0.40;;;0.40;;
7049;SDS011;22263;52.260;10.548;2024-01-27T13:31:18;0.50;;;0.50;;
7049;SDS011;22263;52.260;10.548;2024-01-27T13:33:50;0.40;;;0.40;;
7049;SDS011;22263;52.260;10.548;2024-01-27T13:36:20;0.40;;;0.40;;
7049;SDS011;22263;52.260;10.548;2024-01-27T13:38:50;0.40;;;0.40;;
7049;SDS011;22263;52.260;10.548;2024-01-27T13:41:20;0.50;;;0.50;;
7049;SDS011;22263;52.260;10.548;2024-01-27T13:43:50;0.45;;;0.45;;
7049;SDS011;22263;52.260;10.548;2024-01-27T13:46:23;0.40;;;0.40;;
7049;SDS011;22263;52.260;10.548;2024-01-27T13:48:53;0.50;;;0.50;;
7049;SDS011;22263;52.260;10.548;2024-01-27T13:51:24;0.40;;;0.40;;
7049;SDS011;22263;52.260;10.548;2024-01-27T13:53:53;0.47;;;0.47;;
7049;SDS011;22263;52.260;10.548;2024-01-27T13:56:23;0.40;;;0.40;;
7049;SDS011;22263;52.260;10.548;2024-01-27T13:58:56;0.45;;;0.45;;
7049;SDS011;22263;52.260;10.548;2024-01-27T14:01:28;0.40;;;0.40;;
7049;SDS011;22263;52.260;10.548;2024-01-27T14:03:58;0.40;;;0.40;;
7049;SDS011;22263;52.260;10.548;2024-01-27T14:06:28;0.32;;;0.32;;
7049;SDS011;22263;52.260;10.548;2024-01-27T14:08:58;0.45;;;0.45;;
7049;SDS011;22263;52.260;10.548;2024-01-27T14:11:29;0.40;;;0.40;;
7049;SDS011;22263;52.260;10.548;2024-01-27T14:13:59;0.40;;;0.40;;
7049;SDS011;22263;52.260;10.548;2024-01-27T14:16:31;0.40;;;0.40;;
7049;SDS011;22263;52.260;10.548;2024-01-27T14:19:01;0.40;;;0.40;;
7049;SDS011;22263;52.260;10.548;2024-01-27T14:21:32;0.40;;;0.40;;
7049;SDS011;22263;52.260;10.548;2024-01-27T14:24:03;0.40;;;0.40;;
7049;SDS011;22263;52.260;10.548;2024-01-27T14:26:35;0.50;;;0.50;;
7049;SDS011;22263;52.260;10.548;2024-01-27T14:29:05;0.40;;;0.40;;
7049;SDS011;22263;52.260;10.548;2024-01-27T14:31:37;0.35;;;0.35;;
7049;SDS011;22263;52.260;10.548;2024-01-27T14:34:07;0.40;;;0.40;;
7049;SDS011;22263;52.260;10.548;2024-01-27T14:36:38;0.40;;;0.40;;
7049;SDS011;22263;52.260;10.548;2024-01-27T14:39:08;0.40;;;0.40;;
7049;SDS011;22263;52.260;10.548;2024-01-27T14:41:41;0.40;;;0.40;;
7049;SDS011;22263;52.260;10.548;2024-01-27T14:44:14;0.50;;;0.50;;
7049;SDS011;22263;52.260;10.548;2024-01-27T14:46:47;0.40;;;0.40;;
7049;SDS011;22263;52.260;10.548;2024-01-27T14:49:17;0.50;;;0.50;;
7049;SDS011;22263;52.260;10.548;2024-01-27T14:51:49;0.47;;;0.47;;
7049;SDS011;22263;52.260;10.548;2024-01-27T14:54:19;0.43;;;0.43;;
7049;SDS011;22263;52.260;10.548;2024-01-27T14:56:49;0.50;;;0.50;;
7049;SDS011;22263;52.260;10.548;2024-01-27T14:59:18;0.50;;;0.50;;
7049;SDS011;22263;52.260;10.548;2024-01-27T15:01:51;0.50;;;0.50;;
7049;SDS011;22263;52.260;10.548;2024-01-27T15:04:21;0.50;;;0.50;;
7049;SDS011;22263;52.260;10.548;2024-01-27T15:06:52;0.40;;;0.40;;
7049;SDS011;22263;52.260;10.548;2024-01-27T15:09:23;0.50;;;0.50;;
7049;SDS011;22263;52.260;10.548;2024-01-27T15:11:53;0.50;;;0.50;;